Sikeston, Missouri
Current Conditions -  °F | °C
As of 11:35 AM on Wednesday 26 Nov 2014 (Local Time) from KCIR Reporting Station
Overcast Overcast  
Wind Chill: 39°   Ceiling: 7000
Heat Index: 44°   Visibility: 10mi
Dew Point: 32°   Wind: 9mph
Humidity: 63%   Direction: 140°SE
Pressure: 30.04"   Gusts: NA
Location:  36.88°N, 89.59°W
Report Text: KCIR 261735Z AUTO 14008KT 10SM SCT050 BKN070 OVC090 07/00 A3004 RMK AO2 T00660000
Loading
Personal Weather Stations






























Interactive Weather Map New forecast layout! Learn more

10-Day Weather Forecast

Advertisements
Track Severe Weather on mobile